createdAt,value
2018-08-30T00:01:05.281Z,19.60
2018-08-30T00:03:39.486Z,19.60
2018-08-30T00:06:13.694Z,19.60
2018-08-30T00:08:47.826Z,19.60
2018-08-30T00:11:22.104Z,19.70
2018-08-30T00:13:56.263Z,19.70
2018-08-30T00:16:31.201Z,19.50
2018-08-30T00:19:05.336Z,19.50
2018-08-30T00:21:40.161Z,19.50
2018-08-30T00:24:14.198Z,19.50
2018-08-30T00:26:48.131Z,19.50
2018-08-30T00:29:22.259Z,19.50
2018-08-30T00:31:56.238Z,19.50
2018-08-30T00:34:30.404Z,19.40
2018-08-30T00:37:04.571Z,19.20
2018-08-30T00:39:38.774Z,19.30
2018-08-30T00:42:12.997Z,19.20
2018-08-30T00:44:47.192Z,19.20
2018-08-30T00:47:21.359Z,19.10
2018-08-30T00:49:55.484Z,19.20
2018-08-30T00:52:29.486Z,19.00
2018-08-30T00:55:03.590Z,19.00
2018-08-30T00:57:38.313Z,19.00
2018-08-30T01:00:13.174Z,19.00
2018-08-30T01:02:47.384Z,18.90
2018-08-30T01:05:21.356Z,19.10
2018-08-30T01:07:55.537Z,19.00
2018-08-30T01:10:30.471Z,18.80
2018-08-30T01:13:04.593Z,18.80
2018-08-30T01:15:38.719Z,18.70
2018-08-30T01:18:12.741Z,18.70
2018-08-30T01:20:47.602Z,18.60
2018-08-30T01:23:21.689Z,18.60
2018-08-30T01:25:55.825Z,18.70
2018-08-30T01:28:30.789Z,18.60
2018-08-30T01:31:04.958Z,18.50
2018-08-30T01:33:39.085Z,18.50
2018-08-30T01:36:13.166Z,18.50
2018-08-30T01:38:47.284Z,18.40
2018-08-30T01:41:21.226Z,18.20
2018-08-30T01:43:55.362Z,18.30
2018-08-30T01:46:29.586Z,18.30
2018-08-30T01:49:03.569Z,18.40
2018-08-30T01:51:37.566Z,18.30
2018-08-30T01:54:11.504Z,18.30
2018-08-30T01:56:45.561Z,18.30
2018-08-30T01:59:19.592Z,18.40
2018-08-30T02:01:53.523Z,18.20
2018-08-30T02:04:27.441Z,18.30
2018-08-30T02:07:01.398Z,18.30
2018-08-30T02:09:36.352Z,18.30
2018-08-30T02:12:11.126Z,18.20
2018-08-30T02:14:45.325Z,18.20
2018-08-30T02:17:19.327Z,18.20
2018-08-30T02:19:53.488Z,18.20
2018-08-30T02:22:27.706Z,18.00
2018-08-30T02:25:01.670Z,18.00
2018-08-30T02:27:35.770Z,18.00
2018-08-30T02:30:09.927Z,18.00
2018-08-30T02:32:44.035Z,18.00
2018-08-30T02:35:18.002Z,18.10
2018-08-30T02:37:52.126Z,18.10
2018-08-30T02:40:26.115Z,18.10
2018-08-30T02:43:00.205Z,18.10
2018-08-30T02:45:34.306Z,18.00
2018-08-30T02:48:08.379Z,18.10
2018-08-30T02:50:43.537Z,18.10
2018-08-30T02:53:17.401Z,18.10
2018-08-30T02:55:51.365Z,18.20
2018-08-30T02:58:25.373Z,18.30
2018-08-30T03:00:59.439Z,18.30
2018-08-30T03:03:33.486Z,18.20
2018-08-30T03:06:08.291Z,18.20
2018-08-30T03:08:42.935Z,18.10
2018-08-30T03:11:16.996Z,18.10
2018-08-30T03:13:51.048Z,18.10
2018-08-30T03:16:25.133Z,18.00
2018-08-30T03:18:59.149Z,18.10
2018-08-30T03:21:33.191Z,18.20
2018-08-30T03:24:08.037Z,17.80
2018-08-30T03:26:42.112Z,17.80
2018-08-30T03:29:16.130Z,17.80
2018-08-30T03:31:51.013Z,17.70
2018-08-30T03:34:25.698Z,17.70
2018-08-30T03:36:59.602Z,17.70
2018-08-30T03:39:34.246Z,17.80
2018-08-30T03:42:08.164Z,17.80
2018-08-30T03:44:42.255Z,17.80
2018-08-30T03:47:16.344Z,17.80
2018-08-30T03:49:50.376Z,17.80
2018-08-30T03:52:24.360Z,17.80
2018-08-30T03:54:58.416Z,17.80
2018-08-30T03:57:32.533Z,17.80
2018-08-30T04:00:06.591Z,17.70
2018-08-30T04:02:40.694Z,17.70
2018-08-30T04:05:14.790Z,17.70
2018-08-30T04:07:48.850Z,17.70
2018-08-30T04:10:23.005Z,17.70
2018-08-30T04:12:57.836Z,17.60
2018-08-30T04:15:31.994Z,17.60
2018-08-30T04:18:06.088Z,17.60
2018-08-30T04:20:40.169Z,17.60
2018-08-30T04:23:15.045Z,17.70
2018-08-30T04:25:49.144Z,17.70
2018-08-30T04:28:23.218Z,17.60
2018-08-30T04:30:57.229Z,17.40
2018-08-30T04:33:32.068Z,17.50
2018-08-30T04:36:06.189Z,17.40
2018-08-30T04:38:40.287Z,17.50
2018-08-30T04:41:15.167Z,17.50
2018-08-30T04:43:49.234Z,17.50
2018-08-30T04:46:23.186Z,17.50
2018-08-30T04:48:57.323Z,17.40
2018-08-30T04:51:31.377Z,17.40
2018-08-30T04:54:05.509Z,17.40
2018-08-30T04:56:39.449Z,17.50
2018-08-30T04:59:13.502Z,17.60
2018-08-30T05:01:47.483Z,17.60
2018-08-30T05:04:21.549Z,17.60
2018-08-30T05:06:55.469Z,17.50
2018-08-30T05:09:29.459Z,17.50
2018-08-30T05:12:03.525Z,17.60
2018-08-30T05:14:37.577Z,17.60
2018-08-30T05:17:11.593Z,17.80
2018-08-30T05:19:46.520Z,17.90
2018-08-30T05:22:20.492Z,17.90
2018-08-30T05:24:54.467Z,17.80
2018-08-30T05:27:28.561Z,18.10
2018-08-30T05:30:02.608Z,18.00
2018-08-30T05:32:36.714Z,18.00
2018-08-30T05:35:11.038Z,18.00
2018-08-30T05:37:44.947Z,17.90
2018-08-30T05:40:19.117Z,17.70
2018-08-30T05:42:53.268Z,17.70
2018-08-30T05:45:27.385Z,17.90
2018-08-30T05:48:01.481Z,17.90
2018-08-30T05:50:35.584Z,17.80
2018-08-30T05:53:09.701Z,17.80
2018-08-30T05:55:43.796Z,17.70
2018-08-30T05:58:17.924Z,18.00
2018-08-30T06:00:51.859Z,18.00
2018-08-30T06:03:25.889Z,18.20
2018-08-30T06:05:59.966Z,18.20
2018-08-30T06:08:34.071Z,18.00
2018-08-30T06:11:08.070Z,18.20
2018-08-30T06:13:42.126Z,18.00
2018-08-30T06:16:16.194Z,18.00
2018-08-30T06:18:50.310Z,17.90
2018-08-30T06:21:24.975Z,17.90
2018-08-30T06:23:59.060Z,17.90
2018-08-30T06:26:33.182Z,17.90
2018-08-30T06:29:07.108Z,17.90
2018-08-30T06:31:41.879Z,18.10
2018-08-30T06:34:16.519Z,18.10
2018-08-30T06:36:50.422Z,18.10
2018-08-30T06:39:24.418Z,18.30
2018-08-30T06:41:59.271Z,18.30
2018-08-30T06:44:33.246Z,18.30
2018-08-30T06:47:07.259Z,18.40
2018-08-30T06:49:41.292Z,18.50
2018-08-30T06:52:15.345Z,18.50
2018-08-30T06:54:49.420Z,18.40
2018-08-30T06:57:23.456Z,18.40
2018-08-30T06:59:57.548Z,18.50
2018-08-30T07:02:31.694Z,18.40
2018-08-30T07:05:05.805Z,18.40
2018-08-30T07:07:39.922Z,18.50
2018-08-30T07:10:14.031Z,18.60
2018-08-30T07:12:48.146Z,18.60
2018-08-30T07:15:22.263Z,18.60
2018-08-30T07:17:56.374Z,18.70
2018-08-30T07:20:30.425Z,18.70
2018-08-30T07:23:04.472Z,18.80
2018-08-30T07:25:38.657Z,18.60
2018-08-30T07:28:12.714Z,18.70
2018-08-30T07:30:47.602Z,18.20
2018-08-30T07:33:21.682Z,18.20
2018-08-30T07:35:55.701Z,18.20
2018-08-30T07:38:29.635Z,18.40
2018-08-30T07:41:03.627Z,18.40
2018-08-30T07:43:37.610Z,18.60
2018-08-30T07:46:11.700Z,18.70
2018-08-30T07:48:45.767Z,18.70
2018-08-30T07:51:19.738Z,19.00
2018-08-30T07:53:53.782Z,19.10
2018-08-30T07:56:27.914Z,19.00
2018-08-30T07:59:02.066Z,19.10
2018-08-30T08:01:36.173Z,19.00
2018-08-30T08:04:10.246Z,18.70
2018-08-30T08:06:44.352Z,18.40
2018-08-30T08:09:18.352Z,18.40
2018-08-30T08:11:52.548Z,18.40
2018-08-30T08:14:26.490Z,18.10
2018-08-30T08:17:01.425Z,18.30
2018-08-30T08:19:35.504Z,18.20
2018-08-30T08:22:10.159Z,18.20
2018-08-30T08:24:44.238Z,18.20
2018-08-30T08:27:18.283Z,18.30
2018-08-30T08:29:52.303Z,18.40
2018-08-30T08:32:26.394Z,18.70
2018-08-30T08:35:01.155Z,18.30
2018-08-30T08:37:35.273Z,18.40
2018-08-30T08:40:09.267Z,18.40
2018-08-30T08:42:43.337Z,18.60
2018-08-30T08:45:17.407Z,18.80
2018-08-30T08:47:51.548Z,18.90
2018-08-30T08:50:25.709Z,19.50
2018-08-30T08:52:59.694Z,19.60
2018-08-30T08:55:33.859Z,19.20
2018-08-30T08:58:07.970Z,19.30
2018-08-30T09:00:42.054Z,19.70
2018-08-30T09:03:16.165Z,19.70
2018-08-30T09:05:50.304Z,19.80
2018-08-30T09:08:24.442Z,20.20
2018-08-30T09:10:58.490Z,20.70
2018-08-30T09:13:33.253Z,20.90
2018-08-30T09:16:07.329Z,20.90
2018-08-30T09:18:41.464Z,20.60
2018-08-30T09:21:15.603Z,20.90
2018-08-30T09:23:49.673Z,21.20
2018-08-30T09:26:23.748Z,21.00
2018-08-30T09:28:57.697Z,20.80
2018-08-30T09:31:31.711Z,20.80
2018-08-30T09:34:05.863Z,20.30
2018-08-30T09:36:39.874Z,20.60
2018-08-30T09:39:13.985Z,20.80
2018-08-30T09:41:47.941Z,21.30
2018-08-30T09:44:22.065Z,21.00
2018-08-30T09:46:56.930Z,20.80
2018-08-30T09:49:31.046Z,20.80
2018-08-30T09:52:05.871Z,20.40
2018-08-30T09:54:39.953Z,20.40
2018-08-30T09:57:14.022Z,20.30
2018-08-30T09:59:47.877Z,20.30
2018-08-30T10:02:21.921Z,20.40
2018-08-30T10:04:55.902Z,20.70
2018-08-30T10:07:30.041Z,21.20
2018-08-30T10:10:04.222Z,21.20
2018-08-30T10:12:38.376Z,21.10
2018-08-30T10:15:12.356Z,21.10
2018-08-30T10:17:46.573Z,21.20
2018-08-30T10:20:20.686Z,21.20
2018-08-30T10:22:54.747Z,21.10
2018-08-30T10:25:28.878Z,21.40
2018-08-30T10:28:02.955Z,21.60
2018-08-30T10:30:37.040Z,21.80
2018-08-30T10:33:11.040Z,21.70
2018-08-30T10:35:45.158Z,22.10
2018-08-30T10:38:20.008Z,22.20
2018-08-30T10:40:54.111Z,22.20
2018-08-30T10:43:28.230Z,22.10
2018-08-30T10:46:02.317Z,21.70
2018-08-30T10:48:36.371Z,21.10
2018-08-30T10:51:10.406Z,21.10
2018-08-30T10:53:44.456Z,20.90
2018-08-30T10:56:18.517Z,21.10
2018-08-30T10:58:52.465Z,21.10
2018-08-30T11:01:26.516Z,20.90
2018-08-30T11:04:00.625Z,20.70
2018-08-30T11:06:35.465Z,21.40
2018-08-30T11:09:10.310Z,21.40
2018-08-30T11:11:44.346Z,21.40
2018-08-30T11:14:18.426Z,21.40
2018-08-30T11:16:52.322Z,21.60
2018-08-30T11:19:26.347Z,21.60
2018-08-30T11:22:00.435Z,22.20
2018-08-30T11:24:34.563Z,21.60
2018-08-30T11:27:08.593Z,21.80
2018-08-30T11:29:42.671Z,22.00
2018-08-30T11:32:16.743Z,22.20
2018-08-30T11:34:50.928Z,22.40
2018-08-30T11:37:25.037Z,22.20
2018-08-30T11:39:59.133Z,22.40
2018-08-30T11:42:34.049Z,23.10
2018-08-30T11:45:08.077Z,23.10
2018-08-30T11:47:42.162Z,23.10
2018-08-30T11:50:16.216Z,22.60
2018-08-30T11:52:51.050Z,22.50
2018-08-30T11:55:24.949Z,22.40
2018-08-30T11:57:59.670Z,22.80
2018-08-30T12:00:33.745Z,22.80
2018-08-30T12:03:07.832Z,22.80
2018-08-30T12:05:42.781Z,22.50
2018-08-30T12:08:16.877Z,22.50
2018-08-30T12:10:51.012Z,22.50
2018-08-30T12:13:25.054Z,22.70
2018-08-30T12:15:59.153Z,23.20
2018-08-30T12:18:34.092Z,23.20
2018-08-30T12:21:08.207Z,23.10
2018-08-30T12:23:42.356Z,23.50
2018-08-30T12:26:17.214Z,24.20
2018-08-30T12:28:51.321Z,24.20
2018-08-30T12:31:26.108Z,23.90
2018-08-30T12:34:00.909Z,24.50
2018-08-30T12:36:35.004Z,24.50
2018-08-30T12:39:09.065Z,24.00
2018-08-30T12:41:43.942Z,23.60
2018-08-30T12:44:35.630Z,23.50
2018-08-30T12:47:09.545Z,23.30
2018-08-30T12:49:43.602Z,23.40
2018-08-30T12:52:17.759Z,23.30
2018-08-30T12:54:51.754Z,23.30
2018-08-30T12:57:25.962Z,23.40
2018-08-30T13:00:00.035Z,23.80
2018-08-30T13:02:34.879Z,23.80
2018-08-30T13:05:09.040Z,23.80
2018-08-30T13:07:43.106Z,24.30
2018-08-30T13:10:17.472Z,24.50
2018-08-30T13:12:51.547Z,24.60
2018-08-30T13:15:25.662Z,24.70
2018-08-30T13:17:59.552Z,24.60
2018-08-30T13:20:33.792Z,24.30
2018-08-30T13:23:07.983Z,24.20
2018-08-30T13:25:42.088Z,24.40
2018-08-30T13:28:16.368Z,25.10
2018-08-30T13:30:50.698Z,25.30
2018-08-30T13:33:24.876Z,23.90
2018-08-30T13:35:58.813Z,23.80
2018-08-30T13:38:33.744Z,23.40
2018-08-30T13:41:07.906Z,23.40
2018-08-30T13:43:41.623Z,23.60
2018-08-30T13:46:15.685Z,23.40
2018-08-30T13:48:50.084Z,23.00
2018-08-30T13:51:24.175Z,22.90
2018-08-30T13:53:58.201Z,23.20
2018-08-30T13:56:32.417Z,22.90
2018-08-30T13:59:07.318Z,23.10
2018-08-30T14:01:41.185Z,23.10
2018-08-30T14:04:15.402Z,23.30
2018-08-30T14:06:49.441Z,23.40
2018-08-30T14:09:23.508Z,23.70
2018-08-30T14:11:57.652Z,23.80
2018-08-30T14:14:31.478Z,23.90
2018-08-30T14:17:05.537Z,24.10
2018-08-30T14:19:39.521Z,24.50
2018-08-30T14:22:13.477Z,24.00
2018-08-30T14:24:47.517Z,24.20
2018-08-30T14:27:21.656Z,24.60
2018-08-30T14:29:56.582Z,23.70
2018-08-30T14:32:30.706Z,23.70
2018-08-30T14:35:04.774Z,23.90
2018-08-30T14:37:38.877Z,23.80
2018-08-30T14:40:12.916Z,23.70
2018-08-30T14:42:46.885Z,23.90
2018-08-30T14:45:20.972Z,23.80
2018-08-30T14:47:55.890Z,23.90
2018-08-30T14:50:29.764Z,23.80
2018-08-30T14:53:04.604Z,23.80
2018-08-30T14:55:38.742Z,23.70
2018-08-30T14:58:12.753Z,24.10
2018-08-30T15:00:46.826Z,23.60
2018-08-30T15:03:20.952Z,23.30
2018-08-30T15:05:55.099Z,23.20
2018-08-30T15:08:29.154Z,23.00
2018-08-30T15:11:03.434Z,23.20
2018-08-30T15:13:37.547Z,23.60
2018-08-30T15:16:11.777Z,24.10
2018-08-30T15:18:45.904Z,24.30
2018-08-30T15:21:20.061Z,24.40
2018-08-30T15:23:54.084Z,24.70
2018-08-30T15:26:28.211Z,24.50
2018-08-30T15:29:02.293Z,24.20
2018-08-30T15:31:36.292Z,24.90
2018-08-30T15:34:18.842Z,25.00
2018-08-30T15:36:52.950Z,25.50
2018-08-30T15:39:27.046Z,26.00
2018-08-30T15:42:02.010Z,27.10
2018-08-30T15:44:36.040Z,27.00
2018-08-30T15:47:09.991Z,26.60
2018-08-30T15:49:43.957Z,26.40
2018-08-30T15:52:18.004Z,25.40
2018-08-30T15:54:52.257Z,24.60
2018-08-30T15:57:26.284Z,24.30
2018-08-30T16:00:00.249Z,24.20
2018-08-30T16:02:34.292Z,24.30
2018-08-30T16:05:09.238Z,23.60
2018-08-30T16:07:43.194Z,23.60
2018-08-30T16:10:18.053Z,23.20
2018-08-30T16:12:52.348Z,23.20
2018-08-30T16:15:26.918Z,23.20
2018-08-30T16:18:00.873Z,23.20
2018-08-30T16:20:35.029Z,23.20
2018-08-30T16:23:09.351Z,23.80
2018-08-30T16:25:43.343Z,24.20
2018-08-30T16:28:17.518Z,23.80
2018-08-30T16:30:51.884Z,23.30
2018-08-30T16:33:26.790Z,23.20
2018-08-30T16:36:00.812Z,23.10
2018-08-30T16:38:35.684Z,23.10
2018-08-30T16:41:09.629Z,22.60
2018-08-30T16:43:43.669Z,22.60
2018-08-30T16:46:17.813Z,22.60
2018-08-30T16:48:52.641Z,22.50
2018-08-30T16:51:27.258Z,22.30
2018-08-30T16:54:01.347Z,22.30
2018-08-30T16:56:35.509Z,22.40
2018-08-30T16:59:09.753Z,22.30
2018-08-30T17:01:43.743Z,22.30
2018-08-30T17:04:17.701Z,22.10
2018-08-30T17:06:52.654Z,22.10
2018-08-30T17:09:26.653Z,22.00
2018-08-30T17:12:00.789Z,22.30
2018-08-30T17:14:34.897Z,22.30
2018-08-30T17:17:08.931Z,22.00
2018-08-30T17:19:43.075Z,21.80
2018-08-30T17:22:17.529Z,21.80
2018-08-30T17:24:51.409Z,21.90
2018-08-30T17:27:25.661Z,21.80
2018-08-30T17:29:59.675Z,21.80
2018-08-30T17:32:33.761Z,21.80
2018-08-30T17:35:07.881Z,21.70
2018-08-30T17:37:41.899Z,21.60
2018-08-30T17:40:16.611Z,21.80
2018-08-30T17:42:53.390Z,21.80
2018-08-30T17:45:30.473Z,21.70
2018-08-30T17:48:05.222Z,21.30
2018-08-30T17:50:39.120Z,21.30
2018-08-30T17:53:13.209Z,21.40
2018-08-30T17:55:47.319Z,21.40
2018-08-30T17:58:21.341Z,21.40
2018-08-30T18:00:55.396Z,21.40
2018-08-30T18:03:29.454Z,21.20
2018-08-30T18:06:03.590Z,21.30
2018-08-30T18:08:37.730Z,21.40
2018-08-30T18:11:11.806Z,21.30
2018-08-30T18:13:45.938Z,21.10
2018-08-30T18:16:20.042Z,20.90
2018-08-30T18:18:53.950Z,20.90
2018-08-30T18:21:28.060Z,20.80
2018-08-30T18:24:02.207Z,20.70
2018-08-30T18:26:36.828Z,20.70
2018-08-30T18:29:10.908Z,20.60
2018-08-30T18:31:44.847Z,20.60
2018-08-30T18:34:19.559Z,20.60
2018-08-30T18:36:54.094Z,20.60
2018-08-30T18:39:28.821Z,20.60
2018-08-30T18:42:02.933Z,20.60
2018-08-30T18:44:37.111Z,20.60
2018-08-30T18:47:11.888Z,20.50
2018-08-30T18:49:45.969Z,20.50
2018-08-30T18:52:20.833Z,20.30
2018-08-30T18:54:54.928Z,20.30
2018-08-30T18:57:29.165Z,20.10
2018-08-30T19:00:03.149Z,19.90
2018-08-30T19:02:37.101Z,20.00
2018-08-30T19:05:11.841Z,19.80
2018-08-30T19:07:45.826Z,19.80
2018-08-30T19:10:19.994Z,19.80
2018-08-30T19:12:54.106Z,19.80
2018-08-30T19:15:28.422Z,19.70
2018-08-30T19:18:03.210Z,19.70
2018-08-30T19:20:37.398Z,19.70
2018-08-30T19:23:11.425Z,19.60
2018-08-30T19:25:45.472Z,19.50
2018-08-30T19:28:19.519Z,19.60
2018-08-30T19:30:53.628Z,19.50
2018-08-30T19:33:27.699Z,19.50
2018-08-30T19:36:01.790Z,19.40
2018-08-30T19:38:35.872Z,19.50
2018-08-30T19:41:10.006Z,19.40
2018-08-30T19:43:43.929Z,19.30
2018-08-30T19:46:17.997Z,19.20
2018-08-30T19:48:52.113Z,19.30
2018-08-30T19:51:26.261Z,19.40
2018-08-30T19:54:04.995Z,19.40
2018-08-30T19:56:39.111Z,19.30
2018-08-30T19:59:13.164Z,19.30
2018-08-30T20:01:47.090Z,19.20
2018-08-30T20:04:21.209Z,19.40
2018-08-30T20:06:56.045Z,19.30
2018-08-30T20:09:30.143Z,19.30
2018-08-30T20:12:04.240Z,19.40
2018-08-30T20:14:39.124Z,19.60
2018-08-30T20:17:13.508Z,19.50
2018-08-30T20:19:48.254Z,19.50
2018-08-30T20:22:22.569Z,19.50
2018-08-30T20:24:57.427Z,19.40
2018-08-30T20:27:31.670Z,19.40
2018-08-30T20:30:08.657Z,19.40
2018-08-30T20:32:42.845Z,19.40
2018-08-30T20:35:17.545Z,19.10
2018-08-30T20:37:51.787Z,19.10
2018-08-30T20:40:25.947Z,19.00
2018-08-30T20:43:00.072Z,19.00
2018-08-30T20:45:34.144Z,19.00
2018-08-30T20:48:08.927Z,19.00
2018-08-30T20:50:43.251Z,19.00
2018-08-30T20:53:18.180Z,19.00
2018-08-30T20:55:52.177Z,18.90
2018-08-30T20:58:26.144Z,18.80
2018-08-30T21:01:00.234Z,18.80
2018-08-30T21:03:34.356Z,18.80
2018-08-30T21:06:08.455Z,19.10
2018-08-30T21:08:42.554Z,19.00
2018-08-30T21:11:17.480Z,19.10
2018-08-30T21:13:51.577Z,19.00
2018-08-30T21:16:25.678Z,19.10
2018-08-30T21:18:59.765Z,19.20
2018-08-30T21:21:33.933Z,19.10
2018-08-30T21:24:08.788Z,18.80
2018-08-30T21:26:43.627Z,18.80
2018-08-30T21:29:17.731Z,18.80
2018-08-30T21:31:55.713Z,18.80
2018-08-30T21:34:37.547Z,19.00
2018-08-30T21:37:15.014Z,19.00
2018-08-30T21:39:54.465Z,18.90
2018-08-30T21:42:32.754Z,19.00
2018-08-30T21:45:06.921Z,18.90
2018-08-30T21:47:41.917Z,18.80
2018-08-30T21:50:16.023Z,18.80
2018-08-30T21:52:50.218Z,18.70
2018-08-30T21:55:24.171Z,18.50
2018-08-30T21:57:58.126Z,18.60
2018-08-30T22:00:32.885Z,18.70
2018-08-30T22:03:07.014Z,18.60
2018-08-30T22:05:41.008Z,18.50
2018-08-30T22:08:15.155Z,18.60
2018-08-30T22:10:49.146Z,18.50
2018-08-30T22:13:23.344Z,18.60
2018-08-30T22:15:57.274Z,18.20
2018-08-30T22:18:31.380Z,18.10
2018-08-30T22:21:05.493Z,18.30
2018-08-30T22:23:40.340Z,18.20
2018-08-30T22:26:14.434Z,18.30
2018-08-30T22:28:48.549Z,18.30
2018-08-30T22:31:22.644Z,18.40
2018-08-30T22:33:56.595Z,18.40
2018-08-30T22:36:30.596Z,18.70
2018-08-30T22:39:04.809Z,18.60
2018-08-30T22:41:38.797Z,18.30
2018-08-30T22:44:12.961Z,18.30
2018-08-30T22:46:46.959Z,18.20
2018-08-30T22:49:21.687Z,18.00
2018-08-30T22:51:55.757Z,18.00
2018-08-30T22:54:29.909Z,18.30
2018-08-30T22:57:04.072Z,18.40
2018-08-30T22:59:38.161Z,18.30
2018-08-30T23:02:12.317Z,18.20
2018-08-30T23:04:47.166Z,18.60
2018-08-30T23:07:21.200Z,18.60
2018-08-30T23:09:55.263Z,18.70
2018-08-30T23:12:29.203Z,18.70
2018-08-30T23:15:03.311Z,18.70
2018-08-30T23:17:37.394Z,18.50
2018-08-30T23:20:11.452Z,18.70
2018-08-30T23:22:45.590Z,18.80
2018-08-30T23:25:19.681Z,18.80
2018-08-30T23:27:53.746Z,18.70
2018-08-30T23:30:27.946Z,18.60
2018-08-30T23:33:01.927Z,18.20
2018-08-30T23:35:35.846Z,18.10
2018-08-30T23:38:09.892Z,18.10
2018-08-30T23:40:43.822Z,18.10
2018-08-30T23:43:17.885Z,17.90
2018-08-30T23:45:52.004Z,18.00
2018-08-30T23:48:25.979Z,18.10
2018-08-30T23:51:00.688Z,18.00
2018-08-30T23:53:34.761Z,18.10
2018-08-30T23:56:08.714Z,18.20
